createdAt,value
2024-03-23T00:00:16.356Z,3.360
2024-03-23T00:01:16.283Z,3.256
2024-03-23T00:02:16.300Z,3.256
2024-03-23T00:03:16.319Z,3.272
2024-03-23T00:04:16.309Z,3.287
2024-03-23T00:05:16.323Z,3.287
2024-03-23T00:06:16.332Z,3.254
2024-03-23T00:07:16.325Z,3.254
2024-03-23T00:08:16.340Z,3.254
2024-03-23T00:09:16.364Z,3.284
2024-03-23T00:10:16.352Z,3.284
2024-03-23T00:11:16.362Z,3.329
2024-03-23T00:12:16.438Z,3.344
2024-03-23T00:13:16.399Z,3.344
2024-03-23T00:14:16.388Z,3.329
2024-03-23T00:15:16.419Z,3.329
2024-03-23T00:16:16.394Z,3.251
2024-03-23T00:17:16.414Z,3.266
2024-03-23T00:18:16.509Z,3.256
2024-03-23T00:19:16.421Z,3.243
2024-03-23T00:20:16.442Z,3.243
2024-03-23T00:21:16.490Z,3.274
2024-03-23T00:22:16.457Z,3.289
2024-03-23T00:23:16.464Z,3.259
2024-03-23T00:24:16.543Z,3.243
2024-03-23T00:25:16.483Z,3.243
2024-03-23T00:26:16.514Z,3.205
2024-03-23T00:27:16.494Z,3.221
2024-03-23T00:28:16.506Z,3.221
2024-03-23T00:29:16.517Z,3.236
2024-03-23T00:30:16.514Z,3.221
2024-03-23T00:31:16.518Z,3.250
2024-03-23T00:32:16.535Z,3.281
2024-03-23T00:33:16.550Z,3.296
2024-03-23T00:34:16.550Z,3.326
2024-03-23T00:35:16.559Z,3.342
2024-03-23T00:36:16.561Z,3.342
2024-03-23T00:37:16.568Z,3.342
2024-03-23T00:38:16.572Z,3.342
2024-03-23T00:39:16.598Z,3.273
2024-03-23T00:40:16.593Z,3.311
2024-03-23T00:41:16.585Z,3.259
2024-03-23T00:42:16.597Z,3.262
2024-03-23T00:43:16.603Z,3.262
2024-03-23T00:44:16.629Z,3.262
2024-03-23T00:45:16.634Z,3.188
2024-03-23T00:46:16.651Z,3.188
2024-03-23T00:47:16.650Z,3.218
2024-03-23T00:48:16.666Z,3.248
2024-03-23T00:49:16.699Z,3.263
2024-03-23T00:50:16.671Z,3.340
2024-03-23T00:51:16.670Z,3.325
2024-03-23T00:52:16.691Z,3.340
2024-03-23T00:53:16.687Z,3.340
2024-03-23T00:54:16.716Z,3.340
2024-03-23T00:55:16.712Z,3.346
2024-03-23T00:56:16.717Z,3.361
2024-03-23T00:57:16.747Z,3.320
2024-03-23T00:58:16.755Z,3.361
2024-03-23T00:59:16.753Z,3.350
2024-03-23T01:00:16.770Z,3.352
2024-03-23T01:01:16.766Z,3.382
2024-03-23T01:02:16.777Z,3.370
2024-03-23T01:03:16.787Z,3.412
2024-03-23T01:04:16.779Z,3.412
2024-03-23T01:05:16.788Z,3.349
2024-03-23T01:06:16.806Z,3.323
2024-03-23T01:07:16.801Z,3.285
2024-03-23T01:08:16.826Z,3.296
2024-03-23T01:09:16.858Z,3.255
2024-03-23T01:10:16.843Z,3.241
2024-03-23T01:11:16.842Z,3.252
2024-03-23T01:12:16.856Z,3.252
2024-03-23T01:13:16.875Z,3.237
2024-03-23T01:14:16.905Z,3.267
2024-03-23T01:15:16.891Z,3.321
2024-03-23T01:16:16.900Z,3.321
2024-03-23T01:17:16.915Z,3.321
2024-03-23T01:18:16.947Z,3.321
2024-03-23T01:19:16.901Z,3.321
2024-03-23T01:20:16.918Z,3.281
2024-03-23T01:21:16.952Z,3.281
2024-03-23T01:22:16.948Z,3.281
2024-03-23T01:23:16.955Z,3.281
2024-03-23T01:24:16.958Z,3.281
2024-03-23T01:25:17.030Z,3.280
2024-03-23T01:26:17.038Z,3.280
2024-03-23T01:27:16.995Z,3.295
2024-03-23T01:28:17.058Z,3.295
2024-03-23T01:29:16.993Z,3.255
2024-03-23T01:30:17.018Z,3.251
2024-03-23T01:31:17.014Z,3.240
2024-03-23T01:32:17.029Z,3.210
2024-03-23T01:33:17.030Z,3.251
2024-03-23T01:34:17.050Z,3.251
2024-03-23T01:35:17.063Z,3.235
2024-03-23T01:36:17.087Z,3.247
2024-03-23T01:37:17.074Z,3.217
2024-03-23T01:38:17.087Z,3.160
2024-03-23T01:39:17.100Z,3.157
2024-03-23T01:40:17.172Z,3.091
2024-03-23T01:41:17.111Z,3.091
2024-03-23T01:42:17.110Z,3.037
2024-03-23T01:43:17.119Z,3.053
2024-03-23T01:44:17.121Z,3.053
2024-03-23T01:45:17.155Z,3.077
2024-03-23T01:46:17.189Z,3.092
2024-03-23T01:47:17.157Z,3.092
2024-03-23T01:48:17.188Z,3.077
2024-03-23T01:49:17.176Z,3.092
2024-03-23T01:50:17.221Z,3.077
2024-03-23T01:51:17.193Z,3.092
2024-03-23T01:52:17.197Z,3.077
2024-03-23T01:53:17.207Z,3.092
2024-03-23T01:54:17.212Z,3.077
2024-03-23T01:55:17.211Z,3.034
2024-03-23T01:56:17.227Z,2.989
2024-03-23T01:57:17.237Z,2.959
2024-03-23T01:58:17.264Z,2.959
2024-03-23T01:59:17.282Z,2.914
2024-03-23T02:00:17.280Z,2.886
2024-03-23T02:01:17.290Z,2.856
2024-03-23T02:02:17.302Z,2.810
2024-03-23T02:03:17.311Z,2.795
2024-03-23T02:04:17.329Z,2.779
2024-03-23T02:05:17.315Z,2.755
2024-03-23T02:06:17.315Z,2.740
2024-03-23T02:07:17.330Z,2.725
2024-03-23T02:08:17.337Z,2.694
2024-03-23T02:09:17.344Z,2.679
2024-03-23T02:10:17.358Z,2.656
2024-03-23T02:11:17.364Z,2.641
2024-03-23T02:12:17.375Z,2.626
2024-03-23T02:13:17.399Z,2.610
2024-03-23T02:14:17.391Z,2.569
2024-03-23T02:15:17.414Z,2.500
2024-03-23T02:16:17.412Z,2.496
2024-03-23T02:17:17.432Z,2.454
2024-03-23T02:18:17.430Z,2.454
2024-03-23T02:19:17.426Z,2.480
2024-03-23T02:20:17.459Z,2.444
2024-03-23T02:21:17.441Z,2.444
2024-03-23T02:22:17.467Z,2.444
2024-03-23T02:23:17.466Z,2.471
2024-03-23T02:24:17.476Z,2.444
2024-03-23T02:25:17.480Z,2.474
2024-03-23T02:26:17.488Z,2.448
2024-03-23T02:27:17.520Z,2.448
2024-03-23T02:28:17.504Z,2.459
2024-03-23T02:29:17.497Z,2.443
2024-03-23T02:30:17.510Z,2.434
2024-03-23T02:31:17.512Z,2.418
2024-03-23T02:32:17.547Z,2.429
2024-03-23T02:33:17.534Z,2.387
2024-03-23T02:34:17.545Z,2.371
2024-03-23T02:35:17.553Z,2.366
2024-03-23T02:36:17.563Z,2.366
2024-03-23T02:37:17.571Z,2.335
2024-03-23T02:38:17.590Z,2.335
2024-03-23T02:39:17.586Z,2.319
2024-03-23T02:40:17.590Z,2.277
2024-03-23T02:41:17.635Z,2.277
2024-03-23T02:42:17.603Z,2.250
2024-03-23T02:43:17.604Z,2.261
2024-03-23T02:44:17.614Z,2.214
2024-03-23T02:45:17.623Z,2.217
2024-03-23T02:46:17.655Z,2.185
2024-03-23T02:47:17.651Z,2.201
2024-03-23T02:48:17.657Z,2.201
2024-03-23T02:49:17.666Z,2.185
2024-03-23T02:50:17.680Z,2.181
2024-03-23T02:51:17.682Z,2.170
2024-03-23T02:52:17.692Z,2.181
2024-03-23T02:53:17.700Z,2.196
2024-03-23T02:54:17.697Z,2.212
2024-03-23T02:55:17.719Z,2.199
2024-03-23T02:56:17.722Z,2.199
2024-03-23T02:57:17.732Z,2.130
2024-03-23T02:58:17.751Z,2.152
2024-03-23T02:59:17.753Z,2.152
2024-03-23T03:00:17.784Z,2.152
2024-03-23T03:01:18.254Z,2.168
2024-03-23T03:02:17.784Z,2.184
2024-03-23T03:03:17.787Z,2.184
2024-03-23T03:04:17.799Z,2.141
2024-03-23T03:05:17.793Z,2.168
2024-03-23T03:06:17.796Z,2.126
2024-03-23T03:07:17.808Z,2.115
2024-03-23T03:08:17.822Z,2.115
2024-03-23T03:09:17.852Z,2.089
2024-03-23T03:10:17.849Z,2.135
2024-03-23T03:11:17.847Z,2.104
2024-03-23T03:12:17.857Z,2.088
2024-03-23T03:13:17.866Z,2.072
2024-03-23T03:14:17.884Z,2.072
2024-03-23T03:15:17.874Z,2.017
2024-03-23T03:16:17.881Z,1.985
2024-03-23T03:17:17.882Z,1.954
2024-03-23T03:18:17.919Z,1.938
2024-03-23T03:19:17.908Z,1.922
2024-03-23T03:20:17.917Z,1.878
2024-03-23T03:21:17.922Z,1.878
2024-03-23T03:22:17.936Z,1.893
2024-03-23T03:23:17.979Z,1.893
2024-03-23T03:24:17.974Z,1.893
2024-03-23T03:25:17.986Z,1.933
2024-03-23T03:26:17.976Z,1.949
2024-03-23T03:27:17.979Z,1.965
2024-03-23T03:28:17.991Z,1.965
2024-03-23T03:29:17.992Z,1.981
2024-03-23T03:30:18.017Z,1.966
2024-03-23T03:31:18.012Z,1.930
2024-03-23T03:32:18.039Z,1.946
2024-03-23T03:33:18.038Z,1.919
2024-03-23T03:34:18.047Z,1.919
2024-03-23T03:35:18.056Z,1.886
2024-03-23T03:36:18.068Z,1.886
2024-03-23T03:37:18.090Z,1.870
2024-03-23T03:38:18.086Z,1.870
2024-03-23T03:39:18.099Z,1.855
2024-03-23T03:40:18.100Z,1.855
2024-03-23T03:41:18.108Z,1.839
2024-03-23T03:42:18.096Z,1.787
2024-03-23T03:43:18.115Z,1.759
2024-03-23T03:44:18.120Z,1.759
2024-03-23T03:45:18.139Z,1.758
2024-03-23T03:46:18.143Z,1.742
2024-03-23T03:47:18.150Z,1.716
2024-03-23T03:48:18.159Z,1.716
2024-03-23T03:49:20.332Z,1.758
2024-03-23T03:50:18.178Z,1.796
2024-03-23T03:51:18.192Z,1.838
2024-03-23T03:52:18.193Z,1.812
2024-03-23T03:53:18.206Z,1.812
2024-03-23T03:54:18.210Z,1.838
2024-03-23T03:55:18.211Z,1.795
2024-03-23T03:56:18.268Z,1.821
2024-03-23T03:57:18.241Z,1.837
2024-03-23T03:58:18.251Z,1.837
2024-03-23T03:59:18.263Z,1.853
2024-03-23T04:00:18.268Z,1.837
2024-03-23T04:01:18.274Z,1.821
2024-03-23T04:02:18.280Z,1.790
2024-03-23T04:03:18.288Z,1.758
2024-03-23T04:04:18.287Z,1.758
2024-03-23T04:05:18.329Z,1.746
2024-03-23T04:06:18.305Z,1.746
2024-03-23T04:07:18.305Z,1.762
2024-03-23T04:08:18.321Z,1.762
2024-03-23T04:09:18.325Z,1.746
2024-03-23T04:10:18.369Z,1.711
2024-03-23T04:11:18.350Z,1.711
2024-03-23T04:12:18.367Z,1.711
2024-03-23T04:13:18.368Z,1.726
2024-03-23T04:14:18.389Z,1.758
2024-03-23T04:15:18.406Z,1.717
2024-03-23T04:16:18.396Z,1.733
2024-03-23T04:17:18.401Z,1.764
2024-03-23T04:18:18.400Z,1.764
2024-03-23T04:19:18.420Z,1.764
2024-03-23T04:20:18.414Z,1.741
2024-03-23T04:21:18.433Z,1.757
2024-03-23T04:22:18.440Z,1.757
2024-03-23T04:23:18.453Z,1.741
2024-03-23T04:24:18.479Z,1.757
2024-03-23T04:25:18.468Z,1.796
2024-03-23T04:26:18.477Z,1.796
2024-03-23T04:27:18.479Z,1.796
2024-03-23T04:28:18.483Z,1.811
2024-03-23T04:29:18.494Z,1.827
2024-03-23T04:30:18.495Z,1.788
2024-03-23T04:31:18.502Z,1.788
2024-03-23T04:32:18.513Z,1.788
2024-03-23T04:33:18.541Z,1.773
2024-03-23T04:34:18.536Z,1.773
2024-03-23T04:35:18.558Z,1.763
2024-03-23T04:36:18.557Z,1.779
2024-03-23T04:37:18.568Z,1.752
2024-03-23T04:38:18.608Z,1.752
2024-03-23T04:39:18.591Z,1.716
2024-03-23T04:40:18.600Z,1.682
2024-03-23T04:41:18.607Z,1.667
2024-03-23T04:42:18.615Z,1.635
2024-03-23T04:43:18.606Z,1.635
2024-03-23T04:44:18.604Z,1.635
2024-03-23T04:45:18.628Z,1.637
2024-03-23T04:46:18.635Z,1.637
2024-03-23T04:47:18.649Z,1.637
2024-03-23T04:48:18.658Z,1.621
2024-03-23T04:49:18.667Z,1.574
2024-03-23T04:50:18.693Z,1.590
2024-03-23T04:51:18.689Z,1.590
2024-03-23T04:52:18.706Z,1.590
2024-03-23T04:53:18.706Z,1.590
2024-03-23T04:54:18.708Z,1.643
2024-03-23T04:55:18.716Z,1.687
2024-03-23T04:56:18.713Z,1.687
2024-03-23T04:57:18.752Z,1.660
2024-03-23T04:58:18.741Z,1.655
2024-03-23T04:59:18.742Z,1.597
2024-03-23T05:00:18.754Z,1.558
2024-03-23T05:01:18.764Z,1.558
2024-03-23T05:02:18.777Z,1.489
2024-03-23T05:03:18.779Z,1.505
2024-03-23T05:04:18.785Z,1.473
2024-03-23T05:05:18.794Z,1.454
2024-03-23T05:06:18.824Z,1.470
2024-03-23T05:07:18.814Z,1.486
2024-03-23T05:08:18.814Z,1.486
2024-03-23T05:09:18.829Z,1.486
2024-03-23T05:10:18.823Z,1.554
2024-03-23T05:11:18.865Z,1.538
2024-03-23T05:12:18.871Z,1.538
2024-03-23T05:13:18.869Z,1.538
2024-03-23T05:14:18.885Z,1.522
2024-03-23T05:15:18.892Z,1.509
2024-03-23T05:16:18.899Z,1.509
2024-03-23T05:17:18.907Z,1.525
2024-03-23T05:18:18.911Z,1.541
2024-03-23T05:19:18.922Z,1.525
2024-03-23T05:20:18.956Z,1.479
2024-03-23T05:21:18.936Z,1.479
2024-03-23T05:22:18.935Z,1.479
2024-03-23T05:23:18.948Z,1.479
2024-03-23T05:24:18.954Z,1.479
2024-03-23T05:25:18.984Z,1.468
2024-03-23T05:26:18.991Z,1.468
2024-03-23T05:27:19.003Z,1.468
2024-03-23T05:28:19.013Z,1.468
2024-03-23T05:29:19.022Z,1.442
2024-03-23T05:30:20.849Z,1.544
2024-03-23T05:31:19.040Z,1.492
2024-03-23T05:32:19.051Z,1.492
2024-03-23T05:33:19.055Z,1.492
2024-03-23T05:34:19.084Z,1.492
2024-03-23T05:35:19.056Z,1.459
2024-03-23T05:36:19.060Z,1.428
2024-03-23T05:37:19.072Z,1.428
2024-03-23T05:38:19.089Z,1.428
2024-03-23T05:39:19.115Z,1.443
2024-03-23T05:40:19.121Z,1.443
2024-03-23T05:41:19.121Z,1.438
2024-03-23T05:42:19.148Z,1.470
2024-03-23T05:43:19.145Z,1.470
2024-03-23T05:44:19.147Z,1.475
2024-03-23T05:45:19.158Z,1.460
2024-03-23T05:46:19.172Z,1.460
2024-03-23T05:47:19.175Z,1.460
2024-03-23T05:48:19.177Z,1.513
2024-03-23T05:49:19.174Z,1.460
2024-03-23T05:50:19.193Z,1.442
2024-03-23T05:51:19.211Z,1.442
2024-03-23T05:52:19.222Z,1.426
2024-03-23T05:53:19.260Z,1.426
2024-03-23T05:54:19.242Z,1.410
2024-03-23T05:55:19.268Z,1.510
2024-03-23T05:56:19.264Z,1.510
2024-03-23T05:57:22.029Z,1.510
2024-03-23T05:58:19.271Z,1.537
2024-03-23T05:59:19.270Z,1.479
2024-03-23T06:00:19.285Z,1.449
2024-03-23T06:01:19.288Z,1.433
2024-03-23T06:02:19.304Z,1.417
2024-03-23T06:03:19.304Z,1.417
2024-03-23T06:04:19.312Z,1.385
2024-03-23T06:05:19.322Z,1.298
2024-03-23T06:06:19.335Z,1.282
2024-03-23T06:07:19.363Z,1.298
2024-03-23T06:08:19.357Z,1.314
2024-03-23T06:09:19.372Z,1.314
2024-03-23T06:10:19.382Z,1.378
2024-03-23T06:11:19.385Z,1.362
2024-03-23T06:12:19.391Z,1.366
2024-03-23T06:13:19.402Z,1.366
2024-03-23T06:14:19.410Z,1.366
2024-03-23T06:15:19.406Z,1.350
2024-03-23T06:16:19.420Z,1.359
2024-03-23T06:17:19.427Z,1.318
2024-03-23T06:18:19.437Z,1.286
2024-03-23T06:19:19.449Z,1.296
2024-03-23T06:20:19.470Z,1.293
2024-03-23T06:21:19.486Z,1.251
2024-03-23T06:22:19.491Z,1.267
2024-03-23T06:23:19.514Z,1.293
2024-03-23T06:24:19.507Z,1.283
2024-03-23T06:25:19.518Z,1.279
2024-03-23T06:26:19.523Z,1.295
2024-03-23T06:27:19.539Z,1.295
2024-03-23T06:28:19.529Z,1.311
2024-03-23T06:29:19.537Z,1.238
2024-03-23T06:30:19.567Z,1.254
2024-03-23T06:31:19.558Z,1.359
2024-03-23T06:32:19.576Z,1.327
2024-03-23T06:33:19.578Z,1.311
2024-03-23T06:34:19.588Z,1.295
2024-03-23T06:35:19.612Z,1.197
2024-03-23T06:36:19.635Z,1.181
2024-03-23T06:37:19.616Z,1.134
2024-03-23T06:38:19.627Z,1.082
2024-03-23T06:39:19.631Z,1.066
2024-03-23T06:40:19.640Z,0.9222
2024-03-23T06:41:19.647Z,0.8901
2024-03-23T06:42:19.642Z,0.7956
2024-03-23T06:43:19.660Z,0.8117
2024-03-23T06:44:19.690Z,0.6916
2024-03-23T06:45:19.680Z,0.7556
2024-03-23T06:46:19.696Z,0.7673
2024-03-23T06:47:19.704Z,0.7673
2024-03-23T06:48:19.716Z,0.7131
2024-03-23T06:49:21.910Z,0.7473
2024-03-23T06:50:19.734Z,0.7152
2024-03-23T06:51:19.754Z,0.6207
2024-03-23T06:52:19.751Z,0.5885
2024-03-23T06:53:19.753Z,0.5885
2024-03-23T06:54:19.772Z,0.5649
2024-03-23T06:55:19.779Z,0.5810
2024-03-23T06:56:19.779Z,0.5649
2024-03-23T06:57:19.787Z,0.5649
2024-03-23T06:58:19.820Z,0.5488
2024-03-23T06:59:19.808Z,0.5715
2024-03-23T07:00:19.821Z,0.5554
2024-03-23T07:01:19.839Z,0.5393
2024-03-23T07:02:19.844Z,0.5393
2024-03-23T07:03:19.874Z,0.5232
2024-03-23T07:04:19.869Z,0.5724
2024-03-23T07:05:19.884Z,0.5724
2024-03-23T07:06:21.729Z,0.5885
2024-03-23T07:07:19.895Z,0.5885
2024-03-23T07:08:19.886Z,0.5885
2024-03-23T07:09:19.899Z,0.5082
2024-03-23T07:10:19.928Z,0.5403
2024-03-23T07:11:19.914Z,0.5725
2024-03-23T07:12:19.952Z,0.5403
2024-03-23T07:13:19.949Z,0.5242
2024-03-23T07:14:19.953Z,0.5734
2024-03-23T07:15:19.963Z,0.5573
2024-03-23T07:16:19.973Z,0.5895
2024-03-23T07:17:19.992Z,0.6056
2024-03-23T07:18:19.980Z,0.6216
2024-03-23T07:19:19.988Z,0.6821
2024-03-23T07:20:19.987Z,0.6500
2024-03-23T07:21:19.995Z,0.6661
2024-03-23T07:22:20.000Z,0.6821
2024-03-23T07:23:20.009Z,0.7616
2024-03-23T07:24:20.025Z,0.6764
2024-03-23T07:25:20.032Z,0.5955
2024-03-23T07:26:20.076Z,0.6117
2024-03-23T07:27:20.052Z,0.5955
2024-03-23T07:28:20.047Z,0.6441
2024-03-23T07:29:20.059Z,0.6630
2024-03-23T07:30:20.063Z,0.6630
2024-03-23T07:31:20.086Z,0.6468
2024-03-23T07:32:20.071Z,0.6144
2024-03-23T07:33:20.070Z,0.6306
2024-03-23T07:34:20.082Z,0.6692
2024-03-23T07:35:20.098Z,0.6367
2024-03-23T07:36:20.108Z,0.6041
2024-03-23T07:37:20.109Z,0.6397
2024-03-23T07:38:20.121Z,0.6886
2024-03-23T07:39:20.132Z,0.7079
2024-03-23T07:40:20.160Z,0.6916
2024-03-23T07:41:20.153Z,0.5350
2024-03-23T07:42:20.138Z,0.5110
2024-03-23T07:43:20.142Z,0.5440
2024-03-23T07:44:20.144Z,0.5392
2024-03-23T07:45:20.176Z,0.5721
2024-03-23T07:46:20.159Z,0.4609
2024-03-23T07:47:20.222Z,0.4609
2024-03-23T07:48:20.176Z,0.4898
2024-03-23T07:49:20.204Z,0.4757
2024-03-23T07:50:20.198Z,0.4328
2024-03-23T07:51:20.198Z,0.5251
2024-03-23T07:52:20.213Z,0.5916
2024-03-23T07:53:20.216Z,0.6245
2024-03-23T07:54:20.579Z,0.5751
2024-03-23T07:55:20.218Z,0.5751
2024-03-23T07:56:20.225Z,0.5586
2024-03-23T07:57:20.227Z,0.5277
2024-03-23T07:58:20.248Z,0.4612
2024-03-23T07:59:20.262Z,0.4111
2024-03-23T08:00:20.256Z,0.3776
2024-03-23T08:01:20.268Z,0.3608
2024-03-23T08:02:20.282Z,0.3823
2024-03-23T08:03:20.290Z,0.4325
2024-03-23T08:04:20.293Z,0.4991
2024-03-23T08:05:20.308Z,0.5343
2024-03-23T08:06:20.308Z,0.5773
2024-03-23T08:07:20.312Z,0.4603
2024-03-23T08:08:20.319Z,0.4771
2024-03-23T08:09:20.312Z,0.4771
2024-03-23T08:10:20.333Z,0.3763
2024-03-23T08:11:20.341Z,0.3931
2024-03-23T08:12:20.351Z,0.2466
2024-03-23T08:13:20.388Z,0.1956
2024-03-23T08:14:20.368Z,0.2296
2024-03-23T08:15:20.374Z,0.1786
2024-03-23T08:16:20.379Z,0.04169
2024-03-23T08:17:20.386Z,-0.1335
2024-03-23T08:18:20.388Z,-0.1641
2024-03-23T08:19:20.391Z,-0.01167
2024-03-23T08:20:20.402Z,0.05401
2024-03-23T08:21:20.415Z,0.1053
2024-03-23T08:22:20.442Z,0.1082
2024-03-23T08:23:20.447Z,0.07412
2024-03-23T08:24:20.451Z,0.05703
2024-03-23T08:25:20.460Z,-0.02408
2024-03-23T08:26:20.477Z,-0.06964
2024-03-23T08:27:20.495Z,-0.1360
2024-03-23T08:28:20.477Z,-0.05992
2024-03-23T08:29:20.482Z,-0.04476
2024-03-23T08:30:20.484Z,-0.05992
2024-03-23T08:31:20.488Z,-0.04476
2024-03-23T08:32:20.499Z,0.0006318
2024-03-23T08:33:20.523Z,0.05066
2024-03-23T08:34:20.523Z,0.08474
2024-03-23T08:35:20.559Z,0.2561
2024-03-23T08:36:20.543Z,0.2204
2024-03-23T08:37:20.538Z,0.1875
2024-03-23T08:38:20.549Z,0.2380
2024-03-23T08:39:24.440Z,0.3411
2024-03-23T08:40:20.551Z,0.3338
2024-03-23T08:41:20.589Z,0.3170
2024-03-23T08:42:20.590Z,0.2157
2024-03-23T08:43:20.577Z,0.2157
2024-03-23T08:44:20.582Z,0.2326
2024-03-23T08:45:20.597Z,0.2664
2024-03-23T08:46:20.608Z,0.3338
2024-03-23T08:47:20.609Z,0.4271
2024-03-23T08:48:20.628Z,0.4938
2024-03-23T08:49:20.640Z,0.4271
2024-03-23T08:50:20.649Z,0.3768
2024-03-23T08:51:20.637Z,0.4103
2024-03-23T08:52:20.658Z,0.4265
2024-03-23T08:53:20.651Z,0.4600
2024-03-23T08:54:20.664Z,0.5101
2024-03-23T08:55:20.672Z,0.5767
2024-03-23T08:56:20.672Z,0.5767
2024-03-23T08:57:20.690Z,0.5744
2024-03-23T08:58:20.710Z,0.6571
2024-03-23T08:59:20.708Z,0.7230
2024-03-23T09:00:20.716Z,0.7722
2024-03-23T09:01:20.725Z,0.8212
2024-03-23T09:02:20.730Z,0.7877
2024-03-23T09:03:20.740Z,0.7806
2024-03-23T09:04:20.756Z,0.7714
2024-03-23T09:05:20.745Z,0.8295
2024-03-23T09:06:20.758Z,0.8620
2024-03-23T09:07:20.763Z,0.8561
2024-03-23T09:08:20.772Z,0.7879
2024-03-23T09:09:20.808Z,0.8236
2024-03-23T09:10:20.793Z,0.8399
2024-03-23T09:11:20.804Z,0.8204
2024-03-23T09:12:20.814Z,0.8106
2024-03-23T09:13:20.846Z,0.8106
2024-03-23T09:14:20.833Z,0.6603
2024-03-23T09:15:20.830Z,0.6603
2024-03-23T09:16:20.841Z,0.6765
2024-03-23T09:17:20.857Z,0.6765
2024-03-23T09:18:20.865Z,0.6603
2024-03-23T09:19:20.852Z,0.7620
2024-03-23T09:20:20.859Z,0.7782
2024-03-23T09:21:20.877Z,0.7782
2024-03-23T09:22:20.880Z,0.8106
2024-03-23T09:23:20.899Z,0.8428
2024-03-23T09:24:20.910Z,0.8882
2024-03-23T09:25:20.911Z,0.8560
2024-03-23T09:26:20.928Z,0.8237
2024-03-23T09:27:20.948Z,0.8237
2024-03-23T09:28:20.954Z,0.7751
2024-03-23T09:29:20.954Z,0.7195
2024-03-23T09:30:20.956Z,0.6869
2024-03-23T09:31:20.964Z,0.6869
2024-03-23T09:32:20.960Z,0.6706
2024-03-23T09:33:20.966Z,0.7521
2024-03-23T09:34:20.982Z,0.7620
2024-03-23T09:35:20.987Z,0.8106
2024-03-23T09:36:20.996Z,0.8106
2024-03-23T09:37:21.013Z,0.8589
2024-03-23T09:38:21.021Z,0.7944
2024-03-23T09:39:23.126Z,0.6378
2024-03-23T09:40:21.040Z,0.4651
2024-03-23T09:41:21.057Z,0.6278
2024-03-23T09:42:21.059Z,0.6114
2024-03-23T09:43:21.067Z,0.6706
2024-03-23T09:44:21.063Z,0.5451
2024-03-23T09:45:21.061Z,0.7233
2024-03-23T09:46:21.096Z,0.5924
2024-03-23T09:47:21.089Z,0.5101
2024-03-23T09:48:21.107Z,0.5101
2024-03-23T09:49:21.115Z,0.4770
2024-03-23T09:50:21.121Z,0.4912
2024-03-23T09:51:21.149Z,0.5241
2024-03-23T09:52:21.134Z,0.4747
2024-03-23T09:53:21.150Z,0.3921
2024-03-23T09:54:21.150Z,0.3256
2024-03-23T09:55:21.165Z,0.2248
2024-03-23T09:56:21.155Z,0.2914
2024-03-23T09:57:21.160Z,0.3743
2024-03-23T09:58:21.166Z,0.4238
2024-03-23T09:59:21.185Z,0.4403
2024-03-23T10:00:21.212Z,0.4403
2024-03-23T10:01:21.211Z,0.3742
2024-03-23T10:02:21.224Z,0.2911
2024-03-23T10:03:21.241Z,0.1908
2024-03-23T10:04:21.254Z,0.1067
2024-03-23T10:05:22.714Z,0.02681
2024-03-23T10:06:21.262Z,0.08606
2024-03-23T10:07:21.276Z,0.05216
2024-03-23T10:08:21.270Z,0.1387
2024-03-23T10:09:21.286Z,0.2231
2024-03-23T10:10:21.277Z,0.2332
2024-03-23T10:11:21.296Z,0.2332
2024-03-23T10:12:21.315Z,0.2164
2024-03-23T10:13:21.335Z,0.2164
2024-03-23T10:14:21.351Z,0.2332
2024-03-23T10:15:21.353Z,0.2547
2024-03-23T10:16:21.360Z,0.2379
2024-03-23T10:17:21.375Z,0.2211
2024-03-23T10:18:21.373Z,0.2547
2024-03-23T10:19:21.407Z,0.3050
2024-03-23T10:20:21.378Z,0.2043
2024-03-23T10:21:21.386Z,0.2379
2024-03-23T10:22:21.399Z,0.2715
2024-03-23T10:23:21.426Z,0.3384
2024-03-23T10:24:21.427Z,0.3287
2024-03-23T10:25:21.433Z,0.2997
2024-03-23T10:26:21.439Z,0.04942
2024-03-23T10:27:21.451Z,-0.1658
2024-03-23T10:28:21.475Z,-0.3257
2024-03-23T10:29:21.464Z,-0.2800
2024-03-23T10:30:21.467Z,-0.3410
2024-03-23T10:31:21.474Z,-0.4051
2024-03-23T10:32:21.483Z,-0.4357
2024-03-23T10:33:21.487Z,-0.4509
2024-03-23T10:34:21.524Z,-0.4051
2024-03-23T10:35:21.523Z,-0.3899
2024-03-23T10:36:21.530Z,-0.4867
2024-03-23T10:37:21.548Z,-0.4406
2024-03-23T10:38:21.539Z,-0.4253
2024-03-23T10:39:21.554Z,-0.4560
2024-03-23T10:40:21.562Z,-0.5483
2024-03-23T10:41:21.564Z,-0.6185
2024-03-23T10:42:21.587Z,-0.5875
2024-03-23T10:43:21.571Z,-0.6340
2024-03-23T10:44:21.586Z,-0.6807
2024-03-23T10:45:21.611Z,-0.6963
2024-03-23T10:46:21.614Z,-0.6574
2024-03-23T10:47:21.647Z,-0.6418
2024-03-23T10:48:21.629Z,-0.6106
2024-03-23T10:49:21.647Z,-0.5639
2024-03-23T10:50:21.648Z,-0.6106
2024-03-23T10:51:21.671Z,-0.6105
2024-03-23T10:52:21.658Z,-0.5482
2024-03-23T10:53:21.652Z,-0.5171
2024-03-23T10:54:21.692Z,-0.4707
2024-03-23T10:55:21.681Z,-0.3629
2024-03-23T10:56:21.715Z,-0.2645
2024-03-23T10:57:21.719Z,-0.1884
2024-03-23T10:58:21.718Z,-0.09768
2024-03-23T10:59:21.717Z,-0.03752
2024-03-23T11:00:21.729Z,-0.03752
2024-03-23T11:01:21.729Z,-0.05253
2024-03-23T11:02:21.735Z,0.08966
2024-03-23T11:03:21.746Z,0.05787
2024-03-23T11:04:21.737Z,0.03250
2024-03-23T11:05:21.772Z,0.03250
2024-03-23T11:06:21.776Z,0.06624
2024-03-23T11:07:21.775Z,0.03250
2024-03-23T11:08:21.785Z,0.1367
2024-03-23T11:09:21.797Z,0.1799
2024-03-23T11:10:21.827Z,0.1630
2024-03-23T11:11:21.809Z,0.1124
2024-03-23T11:12:21.815Z,0.07846
2024-03-23T11:13:21.819Z,-0.02685
2024-03-23T11:14:21.831Z,-0.02685
2024-03-23T11:15:21.823Z,-0.05004
2024-03-23T11:16:21.842Z,0.003152
2024-03-23T11:17:21.832Z,0.03620
2024-03-23T11:18:21.871Z,0.005726
2024-03-23T11:19:21.871Z,0.03905
2024-03-23T11:20:21.872Z,0.1067
2024-03-23T11:21:21.882Z,0.1404
2024-03-23T11:22:21.892Z,0.1572
2024-03-23T11:23:21.898Z,0.2069
2024-03-23T11:24:21.908Z,0.2404
2024-03-23T11:25:21.921Z,0.2572
2024-03-23T11:26:21.912Z,0.2906
2024-03-23T11:27:21.922Z,0.3240
2024-03-23T11:28:21.923Z,0.3620
2024-03-23T11:29:21.933Z,0.4548
2024-03-23T11:30:21.946Z,0.4382
2024-03-23T11:31:21.954Z,0.4382
2024-03-23T11:32:21.963Z,0.4900
2024-03-23T11:33:21.986Z,0.6079
2024-03-23T11:34:21.985Z,0.6477
2024-03-23T11:35:21.998Z,0.6312
2024-03-23T11:36:22.000Z,0.6576
2024-03-23T11:37:22.011Z,0.6312
2024-03-23T11:38:22.028Z,0.6839
2024-03-23T11:39:22.027Z,0.6927
2024-03-23T11:40:22.025Z,0.6761
2024-03-23T11:41:22.025Z,0.6341
2024-03-23T11:42:22.023Z,0.6839
2024-03-23T11:43:22.036Z,0.7110
2024-03-23T11:44:22.048Z,0.6777
2024-03-23T11:45:22.050Z,0.7383
2024-03-23T11:46:22.064Z,0.7607
2024-03-23T11:47:22.117Z,0.8046
2024-03-23T11:48:22.092Z,0.8159
2024-03-23T11:49:22.098Z,0.8159
2024-03-23T11:50:22.110Z,0.8444
2024-03-23T11:51:22.107Z,0.8444
2024-03-23T11:52:22.134Z,0.8775
2024-03-23T11:53:22.119Z,0.8208
2024-03-23T11:54:22.114Z,0.7042
2024-03-23T11:55:22.130Z,0.6372
2024-03-23T11:56:22.146Z,0.6036
2024-03-23T11:57:22.178Z,0.6372
2024-03-23T11:58:22.210Z,0.6345
2024-03-23T11:59:22.188Z,0.6681
2024-03-23T12:00:22.202Z,0.6848
2024-03-23T12:01:22.215Z,0.6177
2024-03-23T12:02:22.198Z,0.6345
2024-03-23T12:03:22.206Z,0.7345
2024-03-23T12:04:22.218Z,0.8470
2024-03-23T12:05:22.221Z,0.8804
2024-03-23T12:06:22.237Z,0.8303
2024-03-23T12:07:22.236Z,0.7632
2024-03-23T12:08:22.236Z,0.7991
2024-03-23T12:09:22.236Z,0.7748
2024-03-23T12:10:22.244Z,0.6808
2024-03-23T12:11:22.254Z,0.6468
2024-03-23T12:12:22.262Z,0.6390
2024-03-23T12:13:22.278Z,0.6248
2024-03-23T12:14:22.291Z,0.6672
2024-03-23T12:15:22.304Z,0.6589
2024-03-23T12:16:22.296Z,0.6589
2024-03-23T12:17:22.303Z,0.5906
2024-03-23T12:18:22.299Z,0.6725
2024-03-23T12:19:22.302Z,0.6300
2024-03-23T12:20:22.332Z,0.5783
2024-03-23T12:21:22.335Z,0.5783
2024-03-23T12:22:22.346Z,0.5611
2024-03-23T12:23:22.348Z,0.6103
2024-03-23T12:24:22.352Z,0.6618
2024-03-23T12:25:22.363Z,0.7301
2024-03-23T12:26:22.368Z,0.8771
2024-03-23T12:27:22.381Z,0.9110
2024-03-23T12:28:22.384Z,0.9825
2024-03-23T12:29:22.393Z,0.9486
2024-03-23T12:30:22.388Z,0.9486
2024-03-23T12:31:22.398Z,0.8719
2024-03-23T12:32:22.425Z,0.8123
2024-03-23T12:33:22.407Z,0.9428
2024-03-23T12:34:22.424Z,0.9598
2024-03-23T12:35:22.423Z,0.9351
2024-03-23T12:36:22.439Z,1.021
2024-03-23T12:37:22.451Z,1.072
2024-03-23T12:38:22.458Z,1.123